Dr Bravo — 3ECC6 — position and weather

sailwx.info

Track history (hours):
 
Tides and Currents Weather Stations Pressure Air Temp Water Temp Dewpoint Dewpoint Depression Visibility Wind Speed Wind Dir Waves Ship Positions

Dr Bravo

Last reported at 2017-Sep-11 22:51 UTC. Time now 2017-Sep-25 13:46 UTC.
Position N 01°14' E 103°58'.
Warning: this ship's position is 13 days out of date.

Length 225 m; draft 7.4 m.

Type: Cargo ship. MMSI: 371314000.

Date/timePositionNaut miles runAvg speedWind from/ knotsBaromVisibWave heightAir tempDewpointWater temp
2017-Sep-11 22:51N 01°14' E 103°58'412.2
2017-Sep-11 22:31N 01°12' E 103°54'611.6
2017-Sep-11 22:01N 01°10' E 103°49'611.0
2017-Sep-11 21:30N 01°06' E 103°45'611.5
2017-Sep-11 20:59N 01°03' E 103°40'611.9
2017-Sep-11 20:30N 01°05' E 103°35'612.6
2017-Sep-11 20:01N 01°08' E 103°29'612.7
2017-Sep-11 19:31N 01°12' E 103°24'712.7
2017-Sep-11 18:59N 01°16' E 103°19'  
2017-Sep-07 00:02N 01°18' E 103°21'111.5
2017-Sep-06 23:57N 01°18' E 103°22'511.0
2017-Sep-06 23:30N 01°14' E 103°25'611.5
2017-Sep-06 23:01N 01°13' E 103°31'611.1
2017-Sep-06 22:30N 01°12' E 103°36'5 9.7
2017-Sep-06 22:00N 01°10' E 103°41'4 8.6
2017-Sep-06 21:30N 01°09' E 103°45'4 7.8
2017-Sep-06 21:01N 01°11' E 103°48'4 7.7
2017-Sep-06 20:30N 01°12' E 103°52'4 8.2
2017-Sep-06 20:00N 01°14' E 103°56'4 7.1
2017-Sep-06 19:30N 01°15' E 103°59'2 3.4
2017-Sep-06 18:59N 01°17' E 103°60'0 0.0
2017-Sep-06 11:35N 01°17' E 103°59'0 0.0
2017-Sep-06 07:39N 01°17' E 103°59'0 0.1
2017-Sep-06 07:30N 01°17' E 103°59'0 0.1
2017-Sep-06 06:55N 01°17' E 103°59'0 0.1
2017-Sep-06 06:29N 01°17' E 103°59'1 2.1
2017-Sep-06 06:00N 01°16' E 103°59'1 1.9
2017-Sep-06 05:29N 01°16' E 103°59'3 5.7
2017-Sep-06 05:00N 01°16' E 104°02'4 7.3
2017-Sep-06 04:27N 01°16' E 104°06'  
Track history (hours):
 
Tides and Currents Weather Stations Pressure Air Temp Water Temp Dewpoint Dewpoint Depression Visibility Wind Speed Wind Dir Waves Ship Positions

Dr Bravo

Last reported at 2017-Sep-11 22:51 UTC. Time now 2017-Sep-25 13:46 UTC.
Position N 01°14' E 103°58'.
Warning: this ship's position is 13 days out of date.

Length 225 m; draft 7.4 m.

Type: Cargo ship. MMSI: 371314000.

Date/timePositionNaut miles runAvg speedWind from/ knotsBaromVisibWave heightAir tempDewpointWater temp
2017-Sep-11 22:51N 01°14' E 103°58'412.2
2017-Sep-11 22:31N 01°12' E 103°54'611.6
2017-Sep-11 22:01N 01°10' E 103°49'611.0
2017-Sep-11 21:30N 01°06' E 103°45'611.5
2017-Sep-11 20:59N 01°03' E 103°40'611.9
2017-Sep-11 20:30N 01°05' E 103°35'612.6
2017-Sep-11 20:01N 01°08' E 103°29'612.7
2017-Sep-11 19:31N 01°12' E 103°24'712.7
2017-Sep-11 18:59N 01°16' E 103°19'  
2017-Sep-07 00:02N 01°18' E 103°21'111.5
2017-Sep-06 23:57N 01°18' E 103°22'511.0
2017-Sep-06 23:30N 01°14' E 103°25'611.5
2017-Sep-06 23:01N 01°13' E 103°31'611.1
2017-Sep-06 22:30N 01°12' E 103°36'5 9.7
2017-Sep-06 22:00N 01°10' E 103°41'4 8.6
2017-Sep-06 21:30N 01°09' E 103°45'4 7.8
2017-Sep-06 21:01N 01°11' E 103°48'4 7.7
2017-Sep-06 20:30N 01°12' E 103°52'4 8.2
2017-Sep-06 20:00N 01°14' E 103°56'4 7.1
2017-Sep-06 19:30N 01°15' E 103°59'2 3.4
2017-Sep-06 18:59N 01°17' E 103°60'0 0.0
2017-Sep-06 11:35N 01°17' E 103°59'0 0.0
2017-Sep-06 07:39N 01°17' E 103°59'0 0.1
2017-Sep-06 07:30N 01°17' E 103°59'0 0.1
2017-Sep-06 06:55N 01°17' E 103°59'0 0.1
2017-Sep-06 06:29N 01°17' E 103°59'1 2.1
2017-Sep-06 06:00N 01°16' E 103°59'1 1.9
2017-Sep-06 05:29N 01°16' E 103°59'3 5.7
2017-Sep-06 05:00N 01°16' E 104°02'4 7.3
2017-Sep-06 04:27N 01°16' E 104°06'  

Dump ship's entire track history